createdAt,value
2022-08-11T00:00:22.759Z,12.48
2022-08-11T00:05:56.465Z,12.32
2022-08-11T00:11:21.576Z,12.32
2022-08-11T00:16:46.833Z,12.25
2022-08-11T00:22:10.154Z,12.18
2022-08-11T00:27:34.649Z,11.91
2022-08-11T00:32:59.323Z,12.14
2022-08-11T00:38:26.626Z,12.07
2022-08-11T00:43:52.487Z,12.01
2022-08-11T00:49:31.059Z,11.94
2022-08-11T00:55:24.521Z,11.76
2022-08-11T01:01:29.866Z,11.87
2022-08-11T01:08:02.473Z,11.86
2022-08-11T01:13:38.281Z,11.90
2022-08-11T01:19:19.030Z,11.81
2022-08-11T01:24:52.608Z,11.73
2022-08-11T01:30:41.568Z,11.43
2022-08-11T01:36:25.949Z,11.68
2022-08-11T01:42:39.728Z,11.19
2022-08-11T01:48:32.045Z,11.21
2022-08-11T01:54:14.736Z,11.34
2022-08-11T01:59:49.242Z,11.35
2022-08-11T02:05:43.312Z,11.47
2022-08-11T02:11:30.872Z,11.53
2022-08-11T02:17:22.826Z,11.50
2022-08-11T02:24:04.832Z,11.55
2022-08-11T02:29:32.901Z,11.57
2022-08-11T02:35:03.022Z,11.43
2022-08-11T02:40:43.010Z,11.36
2022-08-11T02:46:26.323Z,11.49
2022-08-11T02:52:26.849Z,11.46
2022-08-11T02:58:03.234Z,11.21
2022-08-11T03:03:37.952Z,11.07
2022-08-11T03:09:33.588Z,11.54
2022-08-11T03:15:44.630Z,11.60
2022-08-11T03:22:03.244Z,11.64
2022-08-11T03:27:46.104Z,11.67
2022-08-11T03:34:08.011Z,11.88
2022-08-11T03:39:51.091Z,12.02
2022-08-11T03:45:51.066Z,12.19
2022-08-11T03:51:51.865Z,11.92
2022-08-11T03:57:46.381Z,12.61
2022-08-11T04:03:53.043Z,12.81
2022-08-11T04:09:48.912Z,13.07
2022-08-11T04:16:11.401Z,12.65
2022-08-11T04:22:14.325Z,13.77
2022-08-11T04:28:28.561Z,14.09
2022-08-11T04:34:15.356Z,14.35
2022-08-11T04:39:55.819Z,14.92
2022-08-11T04:45:39.262Z,16.93
2022-08-11T04:57:07.629Z,18.15
2022-08-11T05:02:50.728Z,19.14
2022-08-11T05:08:27.934Z,19.53
2022-08-11T05:14:32.001Z,20.13
2022-08-11T05:20:12.569Z,20.50
2022-08-11T05:26:43.160Z,21.01
2022-08-11T05:31:58.518Z,21.42
2022-08-11T05:37:27.187Z,22.02
2022-08-11T05:43:10.543Z,22.39
2022-08-11T05:48:55.121Z,22.71
2022-08-11T05:54:36.485Z,23.11
2022-08-11T06:00:11.019Z,23.11
2022-08-11T06:05:44.129Z,23.47
2022-08-11T06:11:07.484Z,23.53
2022-08-11T06:16:30.226Z,23.40
2022-08-11T06:21:55.877Z,23.83
2022-08-11T06:27:23.006Z,23.81
2022-08-11T06:32:46.743Z,24.12
2022-08-11T06:38:18.569Z,24.18
2022-08-11T06:43:56.052Z,24.33
2022-08-11T06:49:39.576Z,24.14
2022-08-11T06:55:57.417Z,23.96
2022-08-11T07:02:01.382Z,23.93
2022-08-11T07:08:33.538Z,23.79
2022-08-11T07:14:20.034Z,23.92
2022-08-11T07:20:06.392Z,24.00
2022-08-11T07:25:49.971Z,23.92
2022-08-11T07:31:17.440Z,24.04
2022-08-11T07:36:50.731Z,24.01
2022-08-11T07:42:23.121Z,24.06
2022-08-11T07:48:06.900Z,23.99
2022-08-11T07:53:31.483Z,23.87
2022-08-11T07:59:13.495Z,23.84
2022-08-11T08:04:55.741Z,23.91
2022-08-11T08:10:38.434Z,24.22
2022-08-11T08:16:19.875Z,24.32
2022-08-11T08:21:45.373Z,24.30
2022-08-11T08:27:08.231Z,24.46
2022-08-11T08:32:32.504Z,24.50
2022-08-11T08:37:54.858Z,24.53
2022-08-11T08:43:18.949Z,24.69
2022-08-11T08:48:44.462Z,24.65
2022-08-11T08:54:15.363Z,24.72
2022-08-11T08:59:48.433Z,24.68
2022-08-11T09:05:18.923Z,24.77
2022-08-11T09:10:41.565Z,24.43
2022-08-11T09:16:06.595Z,24.16
2022-08-11T09:21:48.319Z,24.24
2022-08-11T09:27:11.746Z,24.16
2022-08-11T09:32:38.102Z,24.25
2022-08-11T09:38:49.394Z,24.41
2022-08-11T09:44:32.409Z,24.43
2022-08-11T09:50:03.807Z,24.18
2022-08-11T09:55:36.713Z,23.89
2022-08-11T10:01:02.654Z,24.11
2022-08-11T10:06:43.745Z,24.42
2022-08-11T10:12:13.662Z,24.37
2022-08-11T10:18:00.117Z,23.78
2022-08-11T10:24:00.198Z,23.29
2022-08-11T10:30:06.434Z,23.72
2022-08-11T10:35:33.284Z,23.92
2022-08-11T10:41:29.537Z,24.18
2022-08-11T10:47:11.460Z,23.80
2022-08-11T10:52:53.338Z,23.59
2022-08-11T10:58:34.610Z,23.15
2022-08-11T11:04:00.561Z,22.89
2022-08-11T11:09:45.444Z,23.21
2022-08-11T11:15:27.055Z,23.55
2022-08-11T11:20:58.772Z,23.90
2022-08-11T11:26:41.448Z,23.86
2022-08-11T11:32:37.469Z,23.40
2022-08-11T11:38:04.850Z,23.04
2022-08-11T11:43:27.225Z,22.95
2022-08-11T11:48:49.806Z,23.16
2022-08-11T11:54:19.175Z,23.49
2022-08-11T12:00:11.779Z,23.73
2022-08-11T12:05:37.085Z,24.05
2022-08-11T12:11:21.739Z,24.24
2022-08-11T12:16:46.466Z,24.35
2022-08-11T12:22:28.421Z,24.30
2022-08-11T12:27:51.115Z,24.36
2022-08-11T12:33:14.896Z,24.18
2022-08-11T12:38:51.767Z,24.44
2022-08-11T12:44:32.154Z,24.40
2022-08-11T12:50:23.126Z,24.30
2022-08-11T12:56:07.829Z,24.47
2022-08-11T13:01:48.540Z,24.53
2022-08-11T13:07:10.887Z,24.53
2022-08-11T13:12:49.363Z,24.46
2022-08-11T13:18:12.839Z,24.25
2022-08-11T13:23:37.144Z,24.37
2022-08-11T13:28:59.611Z,24.33
2022-08-11T13:34:25.707Z,24.23
2022-08-11T13:39:48.201Z,24.17
2022-08-11T13:45:11.128Z,24.06
2022-08-11T13:51:12.622Z,24.08
2022-08-11T13:56:59.658Z,24.00
2022-08-11T14:02:32.224Z,23.80
2022-08-11T14:08:03.679Z,23.56
2022-08-11T14:13:42.237Z,23.35
2022-08-11T14:19:14.833Z,23.50
2022-08-11T14:24:50.002Z,23.13
2022-08-11T14:30:32.692Z,23.16
2022-08-11T14:35:55.078Z,23.35
2022-08-11T14:41:36.222Z,23.18
2022-08-11T14:47:23.233Z,23.09
2022-08-11T14:52:57.534Z,23.11
2022-08-11T14:58:23.925Z,22.95
2022-08-11T15:04:34.032Z,22.65
2022-08-11T15:09:29.202Z,22.47
2022-08-11T15:15:10.729Z,22.44
2022-08-11T15:20:53.473Z,22.17
2022-08-11T15:26:49.541Z,22.30
2022-08-11T15:32:23.891Z,22.19
2022-08-11T15:37:47.758Z,21.81
2022-08-11T15:43:39.871Z,21.62
2022-08-11T15:49:05.808Z,21.32
2022-08-11T15:54:31.770Z,20.98
2022-08-11T16:00:12.609Z,20.94
2022-08-11T16:05:52.848Z,20.76
2022-08-11T16:11:16.163Z,20.30
2022-08-11T16:16:39.826Z,20.32
2022-08-11T16:22:10.344Z,20.08
2022-08-11T16:27:36.021Z,19.91
2022-08-11T16:33:01.373Z,19.60
2022-08-11T16:38:44.655Z,19.56
2022-08-11T16:44:36.999Z,19.57
2022-08-11T16:50:00.499Z,19.24
2022-08-11T16:55:52.826Z,19.03
2022-08-11T17:01:06.960Z,19.03
2022-08-11T17:06:47.494Z,18.98
2022-08-11T17:12:31.779Z,18.53
2022-08-11T17:17:56.152Z,18.60
2022-08-11T17:23:37.291Z,18.22
2022-08-11T17:29:04.073Z,17.97
2022-08-11T17:34:45.413Z,17.89
2022-08-11T17:40:14.293Z,17.72
2022-08-11T17:45:54.806Z,17.43
2022-08-11T17:51:38.671Z,17.44
2022-08-11T17:57:22.621Z,17.26
2022-08-11T18:03:08.150Z,17.06
2022-08-11T18:08:53.402Z,16.93
2022-08-11T18:14:37.046Z,16.80
2022-08-11T18:20:17.236Z,16.45
2022-08-11T18:26:06.477Z,16.33
2022-08-11T18:31:53.391Z,16.31
2022-08-11T18:37:55.484Z,16.15
2022-08-11T18:43:40.235Z,15.99
2022-08-11T18:49:27.295Z,15.99
2022-08-11T18:55:38.275Z,15.68
2022-08-11T19:01:21.229Z,15.19
2022-08-11T19:07:05.157Z,15.21
2022-08-11T19:12:51.065Z,15.32
2022-08-11T19:18:40.027Z,15.33
2022-08-11T19:24:22.735Z,15.22
2022-08-11T19:30:13.399Z,15.33
2022-08-11T19:35:56.547Z,15.35
2022-08-11T19:41:56.815Z,15.30
2022-08-11T19:47:40.038Z,14.74
2022-08-11T19:53:21.610Z,14.85
2022-08-11T19:59:03.744Z,14.91
2022-08-11T20:04:46.043Z,14.74
2022-08-11T20:10:38.930Z,14.75
2022-08-11T20:16:20.928Z,14.79
2022-08-11T20:22:07.510Z,14.74
2022-08-11T20:27:55.126Z,14.57
2022-08-11T20:33:37.654Z,14.32
2022-08-11T20:39:20.148Z,14.14
2022-08-11T20:45:02.651Z,13.95
2022-08-11T20:50:45.844Z,14.14
2022-08-11T20:56:28.191Z,14.11
2022-08-11T21:02:10.822Z,14.04
2022-08-11T21:07:57.297Z,13.95
2022-08-11T21:13:43.694Z,13.94
2022-08-11T21:20:00.533Z,13.77
2022-08-11T21:25:38.431Z,13.69
2022-08-11T21:31:19.278Z,13.59
2022-08-11T21:37:01.952Z,13.39
2022-08-11T21:42:43.653Z,13.29
2022-08-11T21:48:26.055Z,13.19
2022-08-11T21:54:07.654Z,13.17
2022-08-11T22:00:01.979Z,13.23
2022-08-11T22:05:53.530Z,13.26
2022-08-11T22:11:36.230Z,13.14
2022-08-11T22:17:17.208Z,13.18
2022-08-11T22:22:59.007Z,13.11
2022-08-11T22:28:39.330Z,12.93
2022-08-11T22:34:19.107Z,12.81
2022-08-11T22:40:02.441Z,12.93
2022-08-11T22:45:45.821Z,12.88
2022-08-11T22:51:27.652Z,12.84
2022-08-11T22:57:09.206Z,12.80
2022-08-11T23:02:49.235Z,12.76
2022-08-11T23:08:29.445Z,12.64
2022-08-11T23:14:10.647Z,12.55
2022-08-11T23:20:07.294Z,12.38
2022-08-11T23:25:52.649Z,12.46
2022-08-11T23:31:44.417Z,12.35
2022-08-11T23:37:31.717Z,12.35
2022-08-11T23:43:12.132Z,12.34
2022-08-11T23:48:53.035Z,12.29
2022-08-11T23:54:37.459Z,12.05
